sensor_id;sensor_type;location;lat;lon;timestamp;P1;durP1;ratioP1;P2;durP2;ratioP2
43529;SDS011;55654;50.966;6.878;2023-03-12T00:01:27;8.50;;;3.97;;
43529;SDS011;55654;50.966;6.878;2023-03-12T00:03:59;13.10;;;4.63;;
43529;SDS011;55654;50.966;6.878;2023-03-12T00:06:28;12.20;;;4.80;;
43529;SDS011;55654;50.966;6.878;2023-03-12T00:08:54;9.60;;;4.17;;
43529;SDS011;55654;50.966;6.878;2023-03-12T00:11:23;14.60;;;5.30;;
43529;SDS011;55654;50.966;6.878;2023-03-12T00:13:49;10.47;;;4.00;;
43529;SDS011;55654;50.966;6.878;2023-03-12T00:16:16;7.63;;;4.30;;
43529;SDS011;55654;50.966;6.878;2023-03-12T00:18:42;11.03;;;4.40;;
43529;SDS011;55654;50.966;6.878;2023-03-12T00:21:08;13.20;;;4.27;;
43529;SDS011;55654;50.966;6.878;2023-03-12T00:23:34;11.73;;;4.73;;
43529;SDS011;55654;50.966;6.878;2023-03-12T00:26:02;10.63;;;4.00;;
43529;SDS011;55654;50.966;6.878;2023-03-12T00:28:28;10.93;;;4.47;;
43529;SDS011;55654;50.966;6.878;2023-03-12T00:30:57;9.17;;;4.80;;
43529;SDS011;55654;50.966;6.878;2023-03-12T00:33:25;8.33;;;4.80;;
43529;SDS011;55654;50.966;6.878;2023-03-12T00:35:54;15.73;;;4.43;;
43529;SDS011;55654;50.966;6.878;2023-03-12T00:38:21;9.83;;;4.70;;
43529;SDS011;55654;50.966;6.878;2023-03-12T00:40:47;13.30;;;4.57;;
43529;SDS011;55654;50.966;6.878;2023-03-12T00:43:13;8.27;;;4.50;;
43529;SDS011;55654;50.966;6.878;2023-03-12T00:45:39;9.93;;;4.47;;
43529;SDS011;55654;50.966;6.878;2023-03-12T00:48:05;11.60;;;4.90;;
43529;SDS011;55654;50.966;6.878;2023-03-12T00:50:31;10.47;;;4.70;;
43529;SDS011;55654;50.966;6.878;2023-03-12T00:52:57;8.90;;;5.13;;
43529;SDS011;55654;50.966;6.878;2023-03-12T00:55:23;10.87;;;4.33;;
43529;SDS011;55654;50.966;6.878;2023-03-12T00:57:49;10.33;;;4.50;;
43529;SDS011;55654;50.966;6.878;2023-03-12T01:00:15;13.07;;;5.63;;
43529;SDS011;55654;50.966;6.878;2023-03-12T01:02:41;11.77;;;5.53;;
43529;SDS011;55654;50.966;6.878;2023-03-12T01:05:13;8.77;;;4.30;;
43529;SDS011;55654;50.966;6.878;2023-03-12T01:07:39;15.87;;;5.63;;
43529;SDS011;55654;50.966;6.878;2023-03-12T01:10:06;16.00;;;6.13;;
43529;SDS011;55654;50.966;6.878;2023-03-12T01:12:32;8.93;;;4.50;;
43529;SDS011;55654;50.966;6.878;2023-03-12T01:14:58;14.53;;;5.20;;
43529;SDS011;55654;50.966;6.878;2023-03-12T01:17:26;9.10;;;4.77;;
43529;SDS011;55654;50.966;6.878;2023-03-12T01:19:55;11.87;;;5.40;;
43529;SDS011;55654;50.966;6.878;2023-03-12T01:22:21;10.80;;;4.70;;
43529;SDS011;55654;50.966;6.878;2023-03-12T01:24:47;14.40;;;5.60;;
43529;SDS011;55654;50.966;6.878;2023-03-12T01:27:13;15.23;;;5.40;;
43529;SDS011;55654;50.966;6.878;2023-03-12T01:29:39;15.23;;;5.20;;
43529;SDS011;55654;50.966;6.878;2023-03-12T01:32:07;10.97;;;4.63;;
43529;SDS011;55654;50.966;6.878;2023-03-12T01:34:33;7.90;;;3.87;;
43529;SDS011;55654;50.966;6.878;2023-03-12T01:36:59;14.80;;;4.70;;
43529;SDS011;55654;50.966;6.878;2023-03-12T01:39:26;12.87;;;5.00;;
43529;SDS011;55654;50.966;6.878;2023-03-12T01:41:52;11.57;;;5.10;;
43529;SDS011;55654;50.966;6.878;2023-03-12T01:44:18;10.87;;;4.63;;
43529;SDS011;55654;50.966;6.878;2023-03-12T01:46:44;10.03;;;4.63;;
43529;SDS011;55654;50.966;6.878;2023-03-12T01:51:47;13.35;;;4.95;;
43529;SDS011;55654;50.966;6.878;2023-03-12T01:54:17;10.23;;;4.70;;
43529;SDS011;55654;50.966;6.878;2023-03-12T01:56:44;10.97;;;4.70;;
43529;SDS011;55654;50.966;6.878;2023-03-12T01:59:13;13.83;;;4.10;;
43529;SDS011;55654;50.966;6.878;2023-03-12T02:01:40;15.23;;;4.70;;
43529;SDS011;55654;50.966;6.878;2023-03-12T02:04:06;10.40;;;4.50;;
43529;SDS011;55654;50.966;6.878;2023-03-12T02:06:38;9.47;;;4.50;;
43529;SDS011;55654;50.966;6.878;2023-03-12T02:09:05;13.15;;;4.45;;
43529;SDS011;55654;50.966;6.878;2023-03-12T02:11:31;12.73;;;4.50;;
43529;SDS011;55654;50.966;6.878;2023-03-12T02:14:00;9.50;;;4.63;;
43529;SDS011;55654;50.966;6.878;2023-03-12T02:16:26;9.87;;;4.27;;
43529;SDS011;55654;50.966;6.878;2023-03-12T02:18:52;16.57;;;4.10;;
43529;SDS011;55654;50.966;6.878;2023-03-12T02:21:20;8.10;;;4.10;;
43529;SDS011;55654;50.966;6.878;2023-03-12T02:23:51;8.97;;;4.03;;
43529;SDS011;55654;50.966;6.878;2023-03-12T02:26:19;16.45;;;4.43;;
43529;SDS011;55654;50.966;6.878;2023-03-12T02:28:46;9.77;;;3.80;;
43529;SDS011;55654;50.966;6.878;2023-03-12T02:31:13;8.27;;;3.83;;
43529;SDS011;55654;50.966;6.878;2023-03-12T02:33:40;13.17;;;4.37;;
43529;SDS011;55654;50.966;6.878;2023-03-12T02:36:09;5.67;;;3.03;;
43529;SDS011;55654;50.966;6.878;2023-03-12T02:41:25;11.80;;;3.60;;
43529;SDS011;55654;50.966;6.878;2023-03-12T02:46:31;9.37;;;4.17;;
43529;SDS011;55654;50.966;6.878;2023-03-12T02:48:57;9.47;;;3.47;;
43529;SDS011;55654;50.966;6.878;2023-03-12T02:51:24;7.50;;;3.33;;
43529;SDS011;55654;50.966;6.878;2023-03-12T02:53:50;13.30;;;3.43;;
43529;SDS011;55654;50.966;6.878;2023-03-12T02:56:19;7.63;;;3.27;;
43529;SDS011;55654;50.966;6.878;2023-03-12T02:58:47;9.13;;;3.47;;
43529;SDS011;55654;50.966;6.878;2023-03-12T03:01:13;6.97;;;3.60;;
43529;SDS011;55654;50.966;6.878;2023-03-12T03:03:39;7.43;;;3.30;;
43529;SDS011;55654;50.966;6.878;2023-03-12T03:06:05;6.77;;;3.23;;
43529;SDS011;55654;50.966;6.878;2023-03-12T03:08:31;7.93;;;3.13;;
43529;SDS011;55654;50.966;6.878;2023-03-12T03:10:57;10.03;;;3.07;;
43529;SDS011;55654;50.966;6.878;2023-03-12T03:13:26;6.83;;;2.80;;
43529;SDS011;55654;50.966;6.878;2023-03-12T03:15:52;10.97;;;4.93;;
43529;SDS011;55654;50.966;6.878;2023-03-12T03:18:21;9.50;;;3.60;;
43529;SDS011;55654;50.966;6.878;2023-03-12T03:20:56;8.33;;;3.17;;
43529;SDS011;55654;50.966;6.878;2023-03-12T03:23:23;7.73;;;3.73;;
43529;SDS011;55654;50.966;6.878;2023-03-12T03:25:49;7.73;;;3.63;;
43529;SDS011;55654;50.966;6.878;2023-03-12T03:28:16;9.10;;;3.07;;
43529;SDS011;55654;50.966;6.878;2023-03-12T03:30:42;10.67;;;3.53;;
43529;SDS011;55654;50.966;6.878;2023-03-12T03:33:08;6.77;;;2.97;;
43529;SDS011;55654;50.966;6.878;2023-03-12T03:35:37;8.20;;;3.00;;
43529;SDS011;55654;50.966;6.878;2023-03-12T03:38:03;6.97;;;2.37;;
43529;SDS011;55654;50.966;6.878;2023-03-12T03:40:29;9.03;;;2.80;;
43529;SDS011;55654;50.966;6.878;2023-03-12T03:42:55;7.40;;;2.80;;
43529;SDS011;55654;50.966;6.878;2023-03-12T03:45:21;6.90;;;2.70;;
43529;SDS011;55654;50.966;6.878;2023-03-12T03:47:47;7.10;;;2.80;;
43529;SDS011;55654;50.966;6.878;2023-03-12T03:50:13;6.33;;;2.93;;
43529;SDS011;55654;50.966;6.878;2023-03-12T03:52:41;11.90;;;2.90;;
43529;SDS011;55654;50.966;6.878;2023-03-12T03:55:07;6.60;;;2.83;;
43529;SDS011;55654;50.966;6.878;2023-03-12T03:57:33;7.67;;;3.23;;
43529;SDS011;55654;50.966;6.878;2023-03-12T04:00:02;9.10;;;3.10;;
43529;SDS011;55654;50.966;6.878;2023-03-12T04:02:33;5.80;;;2.70;;
43529;SDS011;55654;50.966;6.878;2023-03-12T04:04:59;10.07;;;2.90;;
43529;SDS011;55654;50.966;6.878;2023-03-12T04:07:25;7.33;;;2.73;;
43529;SDS011;55654;50.966;6.878;2023-03-12T04:09:54;7.17;;;3.20;;
43529;SDS011;55654;50.966;6.878;2023-03-12T04:12:22;8.77;;;2.30;;
43529;SDS011;55654;50.966;6.878;2023-03-12T04:14:52;4.67;;;2.50;;
43529;SDS011;55654;50.966;6.878;2023-03-12T04:17:18;5.80;;;2.60;;
43529;SDS011;55654;50.966;6.878;2023-03-12T04:19:44;7.30;;;3.67;;
43529;SDS011;55654;50.966;6.878;2023-03-12T04:22:10;12.57;;;2.60;;
43529;SDS011;55654;50.966;6.878;2023-03-12T04:24:36;9.13;;;2.43;;
43529;SDS011;55654;50.966;6.878;2023-03-12T04:27:02;5.77;;;2.30;;
43529;SDS011;55654;50.966;6.878;2023-03-12T04:29:28;6.90;;;3.00;;
43529;SDS011;55654;50.966;6.878;2023-03-12T04:31:54;8.70;;;2.70;;
43529;SDS011;55654;50.966;6.878;2023-03-12T04:34:22;10.30;;;2.73;;
43529;SDS011;55654;50.966;6.878;2023-03-12T04:36:48;8.67;;;2.63;;
43529;SDS011;55654;50.966;6.878;2023-03-12T04:39:18;9.53;;;3.17;;
43529;SDS011;55654;50.966;6.878;2023-03-12T04:41:44;9.40;;;3.17;;
43529;SDS011;55654;50.966;6.878;2023-03-12T04:44:10;10.33;;;3.70;;
43529;SDS011;55654;50.966;6.878;2023-03-12T04:46:36;6.17;;;2.93;;
43529;SDS011;55654;50.966;6.878;2023-03-12T04:49:03;8.33;;;3.13;;
43529;SDS011;55654;50.966;6.878;2023-03-12T04:51:30;7.10;;;2.20;;
43529;SDS011;55654;50.966;6.878;2023-03-12T04:53:56;10.07;;;2.97;;
43529;SDS011;55654;50.966;6.878;2023-03-12T04:56:22;7.03;;;2.80;;
43529;SDS011;55654;50.966;6.878;2023-03-12T04:58:51;8.00;;;2.33;;
43529;SDS011;55654;50.966;6.878;2023-03-12T05:03:48;7.87;;;2.63;;
43529;SDS011;55654;50.966;6.878;2023-03-12T05:06:14;7.13;;;2.57;;
43529;SDS011;55654;50.966;6.878;2023-03-12T05:08:40;9.70;;;2.90;;
43529;SDS011;55654;50.966;6.878;2023-03-12T05:11:06;10.30;;;3.00;;
43529;SDS011;55654;50.966;6.878;2023-03-12T05:13:32;7.03;;;2.93;;
43529;SDS011;55654;50.966;6.878;2023-03-12T05:15:58;11.03;;;3.07;;
43529;SDS011;55654;50.966;6.878;2023-03-12T05:18:24;7.20;;;2.83;;
43529;SDS011;55654;50.966;6.878;2023-03-12T05:20:58;11.43;;;3.50;;
43529;SDS011;55654;50.966;6.878;2023-03-12T05:23:26;8.37;;;3.17;;
43529;SDS011;55654;50.966;6.878;2023-03-12T05:25:52;6.50;;;3.27;;
43529;SDS011;55654;50.966;6.878;2023-03-12T05:28:18;6.70;;;3.10;;
43529;SDS011;55654;50.966;6.878;2023-03-12T05:30:44;7.57;;;3.23;;
43529;SDS011;55654;50.966;6.878;2023-03-12T05:33:11;9.37;;;3.03;;
43529;SDS011;55654;50.966;6.878;2023-03-12T05:35:36;6.00;;;2.77;;
43529;SDS011;55654;50.966;6.878;2023-03-12T05:38:02;10.13;;;3.10;;
43529;SDS011;55654;50.966;6.878;2023-03-12T05:40:28;8.43;;;3.33;;
43529;SDS011;55654;50.966;6.878;2023-03-12T05:42:54;10.07;;;3.83;;
43529;SDS011;55654;50.966;6.878;2023-03-12T05:45:20;11.97;;;3.20;;
43529;SDS011;55654;50.966;6.878;2023-03-12T05:47:46;7.70;;;3.57;;
43529;SDS011;55654;50.966;6.878;2023-03-12T05:50:12;8.77;;;3.27;;
43529;SDS011;55654;50.966;6.878;2023-03-12T05:52:40;10.70;;;3.40;;
43529;SDS011;55654;50.966;6.878;2023-03-12T05:55:06;8.87;;;3.77;;
43529;SDS011;55654;50.966;6.878;2023-03-12T05:57:35;9.20;;;3.97;;
43529;SDS011;55654;50.966;6.878;2023-03-12T06:00:03;10.27;;;3.40;;
43529;SDS011;55654;50.966;6.878;2023-03-12T06:02:29;11.10;;;3.47;;
43529;SDS011;55654;50.966;6.878;2023-03-12T06:04:55;8.97;;;3.30;;
43529;SDS011;55654;50.966;6.878;2023-03-12T06:07:22;7.23;;;3.37;;
43529;SDS011;55654;50.966;6.878;2023-03-12T06:09:48;12.73;;;4.10;;
43529;SDS011;55654;50.966;6.878;2023-03-12T06:12:14;10.43;;;3.50;;
43529;SDS011;55654;50.966;6.878;2023-03-12T06:14:40;10.03;;;3.10;;
43529;SDS011;55654;50.966;6.878;2023-03-12T06:17:06;8.93;;;3.20;;
43529;SDS011;55654;50.966;6.878;2023-03-12T06:19:32;10.10;;;3.47;;
43529;SDS011;55654;50.966;6.878;2023-03-12T06:21:58;9.47;;;3.50;;
43529;SDS011;55654;50.966;6.878;2023-03-12T06:24:24;17.50;;;3.27;;
43529;SDS011;55654;50.966;6.878;2023-03-12T06:26:50;5.83;;;3.13;;
43529;SDS011;55654;50.966;6.878;2023-03-12T06:29:16;11.23;;;2.63;;
43529;SDS011;55654;50.966;6.878;2023-03-12T06:31:42;6.60;;;2.80;;
43529;SDS011;55654;50.966;6.878;2023-03-12T06:34:08;6.93;;;3.20;;
43529;SDS011;55654;50.966;6.878;2023-03-12T06:36:34;7.27;;;2.87;;
43529;SDS011;55654;50.966;6.878;2023-03-12T06:39:01;9.33;;;3.30;;
43529;SDS011;55654;50.966;6.878;2023-03-12T06:41:30;7.00;;;3.67;;
43529;SDS011;55654;50.966;6.878;2023-03-12T06:43:56;11.53;;;3.73;;
43529;SDS011;55654;50.966;6.878;2023-03-12T06:46:25;6.83;;;2.90;;
43529;SDS011;55654;50.966;6.878;2023-03-12T06:48:51;6.87;;;3.20;;
43529;SDS011;55654;50.966;6.878;2023-03-12T06:51:20;9.63;;;3.43;;
43529;SDS011;55654;50.966;6.878;2023-03-12T06:53:46;6.00;;;3.33;;
43529;SDS011;55654;50.966;6.878;2023-03-12T06:56:12;6.03;;;3.00;;
43529;SDS011;55654;50.966;6.878;2023-03-12T06:58:38;9.23;;;3.07;;
43529;SDS011;55654;50.966;6.878;2023-03-12T07:01:07;10.27;;;3.90;;
43529;SDS011;55654;50.966;6.878;2023-03-12T07:03:33;9.20;;;3.47;;
43529;SDS011;55654;50.966;6.878;2023-03-12T07:06:02;4.17;;;2.80;;
43529;SDS011;55654;50.966;6.878;2023-03-12T07:08:30;8.80;;;3.40;;
43529;SDS011;55654;50.966;6.878;2023-03-12T07:10:57;12.53;;;3.67;;
43529;SDS011;55654;50.966;6.878;2023-03-12T07:13:24;8.37;;;3.23;;
43529;SDS011;55654;50.966;6.878;2023-03-12T07:15:52;7.37;;;3.27;;
43529;SDS011;55654;50.966;6.878;2023-03-12T07:18:18;8.10;;;3.00;;
43529;SDS011;55654;50.966;6.878;2023-03-12T07:20:44;8.40;;;4.00;;
43529;SDS011;55654;50.966;6.878;2023-03-12T07:23:11;8.07;;;2.97;;
43529;SDS011;55654;50.966;6.878;2023-03-12T07:25:38;10.20;;;4.03;;
43529;SDS011;55654;50.966;6.878;2023-03-12T07:28:05;8.90;;;3.60;;
43529;SDS011;55654;50.966;6.878;2023-03-12T07:30:31;6.63;;;3.00;;
43529;SDS011;55654;50.966;6.878;2023-03-12T07:33:07;8.03;;;3.20;;
43529;SDS011;55654;50.966;6.878;2023-03-12T07:35:34;6.93;;;3.60;;
43529;SDS011;55654;50.966;6.878;2023-03-12T07:38:00;9.93;;;3.60;;
43529;SDS011;55654;50.966;6.878;2023-03-12T07:40:29;8.63;;;3.23;;
43529;SDS011;55654;50.966;6.878;2023-03-12T07:42:55;11.83;;;3.73;;
43529;SDS011;55654;50.966;6.878;2023-03-12T07:45:22;13.07;;;2.90;;
43529;SDS011;55654;50.966;6.878;2023-03-12T07:47:48;9.23;;;2.77;;
43529;SDS011;55654;50.966;6.878;2023-03-12T07:50:14;8.40;;;3.23;;
43529;SDS011;55654;50.966;6.878;2023-03-12T07:52:43;7.83;;;3.47;;
43529;SDS011;55654;50.966;6.878;2023-03-12T07:55:09;7.23;;;2.90;;
43529;SDS011;55654;50.966;6.878;2023-03-12T07:57:36;13.07;;;3.23;;
43529;SDS011;55654;50.966;6.878;2023-03-12T08:00:04;13.90;;;3.23;;
43529;SDS011;55654;50.966;6.878;2023-03-12T08:02:32;7.17;;;3.23;;
43529;SDS011;55654;50.966;6.878;2023-03-12T08:05:01;7.20;;;2.93;;
43529;SDS011;55654;50.966;6.878;2023-03-12T08:07:27;7.33;;;3.00;;
43529;SDS011;55654;50.966;6.878;2023-03-12T08:09:57;14.90;;;3.20;;
43529;SDS011;55654;50.966;6.878;2023-03-12T08:12:23;6.23;;;2.60;;
43529;SDS011;55654;50.966;6.878;2023-03-12T08:14:48;6.20;;;2.63;;
43529;SDS011;55654;50.966;6.878;2023-03-12T08:17:14;6.90;;;2.60;;
43529;SDS011;55654;50.966;6.878;2023-03-12T08:19:41;13.77;;;3.57;;
43529;SDS011;55654;50.966;6.878;2023-03-12T08:22:07;6.37;;;2.93;;
43529;SDS011;55654;50.966;6.878;2023-03-12T08:24:33;8.07;;;3.13;;
43529;SDS011;55654;50.966;6.878;2023-03-12T08:26:59;9.63;;;3.47;;
43529;SDS011;55654;50.966;6.878;2023-03-12T08:29:25;10.83;;;3.80;;
43529;SDS011;55654;50.966;6.878;2023-03-12T08:31:51;9.83;;;3.40;;
43529;SDS011;55654;50.966;6.878;2023-03-12T08:34:20;12.07;;;3.90;;
43529;SDS011;55654;50.966;6.878;2023-03-12T08:36:46;11.00;;;3.80;;
43529;SDS011;55654;50.966;6.878;2023-03-12T08:39:12;11.40;;;3.30;;
43529;SDS011;55654;50.966;6.878;2023-03-12T08:41:38;10.13;;;4.03;;
43529;SDS011;55654;50.966;6.878;2023-03-12T08:44:06;12.63;;;4.73;;
43529;SDS011;55654;50.966;6.878;2023-03-12T08:46:32;8.53;;;4.37;;
43529;SDS011;55654;50.966;6.878;2023-03-12T08:48:59;12.90;;;5.33;;
43529;SDS011;55654;50.966;6.878;2023-03-12T08:51:25;11.47;;;4.97;;
43529;SDS011;55654;50.966;6.878;2023-03-12T08:53:51;14.80;;;6.87;;
43529;SDS011;55654;50.966;6.878;2023-03-12T08:56:19;9.47;;;5.90;;
43529;SDS011;55654;50.966;6.878;2023-03-12T08:58:45;9.00;;;5.73;;
43529;SDS011;55654;50.966;6.878;2023-03-12T09:01:11;12.90;;;5.63;;
43529;SDS011;55654;50.966;6.878;2023-03-12T09:03:38;13.23;;;6.50;;
43529;SDS011;55654;50.966;6.878;2023-03-12T09:06:07;7.77;;;4.67;;
43529;SDS011;55654;50.966;6.878;2023-03-12T09:08:37;11.13;;;5.83;;
43529;SDS011;55654;50.966;6.878;2023-03-12T09:11:03;9.93;;;5.00;;
43529;SDS011;55654;50.966;6.878;2023-03-12T09:13:29;11.83;;;5.87;;
43529;SDS011;55654;50.966;6.878;2023-03-12T09:15:59;9.10;;;5.73;;
43529;SDS011;55654;50.966;6.878;2023-03-12T09:18:25;8.90;;;5.70;;
43529;SDS011;55654;50.966;6.878;2023-03-12T09:20:51;10.13;;;5.90;;
43529;SDS011;55654;50.966;6.878;2023-03-12T09:23:20;12.70;;;6.30;;
43529;SDS011;55654;50.966;6.878;2023-03-12T09:25:46;10.80;;;6.43;;
43529;SDS011;55654;50.966;6.878;2023-03-12T09:28:14;9.13;;;6.17;;
43529;SDS011;55654;50.966;6.878;2023-03-12T09:30:40;11.13;;;6.00;;
43529;SDS011;55654;50.966;6.878;2023-03-12T09:33:09;11.80;;;6.40;;
43529;SDS011;55654;50.966;6.878;2023-03-12T09:35:35;12.27;;;6.40;;
43529;SDS011;55654;50.966;6.878;2023-03-12T09:38:01;11.53;;;6.20;;
43529;SDS011;55654;50.966;6.878;2023-03-12T09:40:31;11.43;;;6.17;;
43529;SDS011;55654;50.966;6.878;2023-03-12T09:43:01;9.70;;;6.10;;
43529;SDS011;55654;50.966;6.878;2023-03-12T09:45:33;10.70;;;6.87;;
43529;SDS011;55654;50.966;6.878;2023-03-12T09:48:02;11.27;;;6.13;;
43529;SDS011;55654;50.966;6.878;2023-03-12T09:53:02;13.97;;;8.30;;
43529;SDS011;55654;50.966;6.878;2023-03-12T09:55:48;12.10;;;7.27;;
43529;SDS011;55654;50.966;6.878;2023-03-12T09:58:25;10.83;;;7.20;;
43529;SDS011;55654;50.966;6.878;2023-03-12T10:00:59;10.50;;;7.07;;
43529;SDS011;55654;50.966;6.878;2023-03-12T10:06:10;17.83;;;8.00;;
43529;SDS011;55654;50.966;6.878;2023-03-12T10:26:43;16.03;;;9.63;;
43529;SDS011;55654;50.966;6.878;2023-03-12T10:31:54;13.80;;;9.40;;
43529;SDS011;55654;50.966;6.878;2023-03-12T10:36:50;14.87;;;10.33;;
43529;SDS011;55654;50.966;6.878;2023-03-12T10:39:18;12.73;;;10.00;;
43529;SDS011;55654;50.966;6.878;2023-03-12T10:41:45;18.70;;;11.97;;
43529;SDS011;55654;50.966;6.878;2023-03-12T10:44:19;17.10;;;10.77;;
43529;SDS011;55654;50.966;6.878;2023-03-12T10:46:50;13.33;;;9.13;;
43529;SDS011;55654;50.966;6.878;2023-03-12T10:51:53;14.37;;;9.67;;
43529;SDS011;55654;50.966;6.878;2023-03-12T10:54:41;14.17;;;11.17;;
43529;SDS011;55654;50.966;6.878;2023-03-12T10:57:09;12.83;;;9.97;;
43529;SDS011;55654;50.966;6.878;2023-03-12T10:59:39;12.77;;;9.73;;
43529;SDS011;55654;50.966;6.878;2023-03-12T11:02:27;12.23;;;9.97;;
43529;SDS011;55654;50.966;6.878;2023-03-12T11:04:53;21.57;;;14.57;;
43529;SDS011;55654;50.966;6.878;2023-03-12T11:07:32;15.17;;;10.60;;
43529;SDS011;55654;50.966;6.878;2023-03-12T11:10:03;17.47;;;11.20;;
43529;SDS011;55654;50.966;6.878;2023-03-12T11:12:37;14.30;;;11.03;;
43529;SDS011;55654;50.966;6.878;2023-03-12T11:15:18;26.37;;;11.03;;
43529;SDS011;55654;50.966;6.878;2023-03-12T11:17:44;13.53;;;9.17;;
43529;SDS011;55654;50.966;6.878;2023-03-12T11:20:17;14.37;;;10.03;;
43529;SDS011;55654;50.966;6.878;2023-03-12T11:22:43;16.40;;;10.87;;
43529;SDS011;55654;50.966;6.878;2023-03-12T11:25:19;15.50;;;9.67;;
43529;SDS011;55654;50.966;6.878;2023-03-12T11:27:46;23.70;;;10.43;;
43529;SDS011;55654;50.966;6.878;2023-03-12T11:30:15;26.00;;;11.37;;
43529;SDS011;55654;50.966;6.878;2023-03-12T11:32:48;23.40;;;9.83;;
43529;SDS011;55654;50.966;6.878;2023-03-12T11:35:16;28.97;;;10.20;;
43529;SDS011;55654;50.966;6.878;2023-03-12T11:40:14;27.83;;;11.63;;
43529;SDS011;55654;50.966;6.878;2023-03-12T11:42:54;23.80;;;9.67;;
43529;SDS011;55654;50.966;6.878;2023-03-12T11:50:23;26.20;;;9.27;;
43529;SDS011;55654;50.966;6.878;2023-03-12T11:55:24;23.13;;;9.13;;
43529;SDS011;55654;50.966;6.878;2023-03-12T11:58:29;21.03;;;8.17;;
43529;SDS011;55654;50.966;6.878;2023-03-12T12:04:17;21.03;;;8.80;;
43529;SDS011;55654;50.966;6.878;2023-03-12T12:06:42;20.27;;;7.93;;
43529;SDS011;55654;50.966;6.878;2023-03-12T12:26:04;18.43;;;7.40;;
43529;SDS011;55654;50.966;6.878;2023-03-12T12:31:23;24.20;;;7.50;;
43529;SDS011;55654;50.966;6.878;2023-03-12T12:36:18;18.83;;;5.10;;
43529;SDS011;55654;50.966;6.878;2023-03-12T12:39:46;20.80;;;5.73;;
43529;SDS011;55654;50.966;6.878;2023-03-12T12:41:50;21.17;;;5.43;;
43529;SDS011;55654;50.966;6.878;2023-03-12T12:44:18;26.23;;;6.00;;
43529;SDS011;55654;50.966;6.878;2023-03-12T12:46:47;21.73;;;6.10;;
43529;SDS011;55654;50.966;6.878;2023-03-12T12:49:19;16.00;;;5.47;;
43529;SDS011;55654;50.966;6.878;2023-03-12T12:51:48;18.13;;;5.23;;
43529;SDS011;55654;50.966;6.878;2023-03-12T12:56:49;24.67;;;5.70;;
43529;SDS011;55654;50.966;6.878;2023-03-12T13:01:45;23.07;;;5.87;;
43529;SDS011;55654;50.966;6.878;2023-03-12T13:04:14;19.13;;;5.03;;
43529;SDS011;55654;50.966;6.878;2023-03-12T13:09:35;21.30;;;4.10;;
43529;SDS011;55654;50.966;6.878;2023-03-12T13:12:05;21.33;;;4.40;;
43529;SDS011;55654;50.966;6.878;2023-03-12T13:14:35;22.80;;;4.90;;
43529;SDS011;55654;50.966;6.878;2023-03-12T13:17:06;19.67;;;5.13;;
43529;SDS011;55654;50.966;6.878;2023-03-12T13:19:37;19.47;;;4.10;;
43529;SDS011;55654;50.966;6.878;2023-03-12T13:24:30;16.33;;;4.33;;
43529;SDS011;55654;50.966;6.878;2023-03-12T13:27:11;23.13;;;4.73;;
43529;SDS011;55654;50.966;6.878;2023-03-12T13:29:39;24.67;;;4.73;;
43529;SDS011;55654;50.966;6.878;2023-03-12T13:32:35;22.27;;;5.10;;
43529;SDS011;55654;50.966;6.878;2023-03-12T13:34:55;22.40;;;4.67;;
43529;SDS011;55654;50.966;6.878;2023-03-12T13:37:31;20.67;;;4.20;;
43529;SDS011;55654;50.966;6.878;2023-03-12T13:40:32;22.57;;;4.77;;
43529;SDS011;55654;50.966;6.878;2023-03-12T13:45:27;15.90;;;4.00;;
43529;SDS011;55654;50.966;6.878;2023-03-12T13:47:57;21.17;;;4.40;;
43529;SDS011;55654;50.966;6.878;2023-03-12T13:50:24;22.23;;;4.53;;
43529;SDS011;55654;50.966;6.878;2023-03-12T13:53:03;24.03;;;5.00;;
43529;SDS011;55654;50.966;6.878;2023-03-12T13:55:32;23.07;;;4.63;;
43529;SDS011;55654;50.966;6.878;2023-03-12T13:58:01;26.13;;;5.07;;
43529;SDS011;55654;50.966;6.878;2023-03-12T14:00:38;27.63;;;5.85;;
43529;SDS011;55654;50.966;6.878;2023-03-12T14:03:11;27.63;;;5.30;;
43529;SDS011;55654;50.966;6.878;2023-03-12T14:18:48;19.63;;;3.80;;
43529;SDS011;55654;50.966;6.878;2023-03-12T14:21:16;28.67;;;4.97;;
43529;SDS011;55654;50.966;6.878;2023-03-12T14:23:48;25.50;;;4.10;;
43529;SDS011;55654;50.966;6.878;2023-03-12T14:26:18;22.87;;;4.10;;
43529;SDS011;55654;50.966;6.878;2023-03-12T14:28:45;21.60;;;4.60;;
43529;SDS011;55654;50.966;6.878;2023-03-12T14:31:13;26.60;;;5.53;;
43529;SDS011;55654;50.966;6.878;2023-03-12T14:33:47;21.77;;;4.43;;
43529;SDS011;55654;50.966;6.878;2023-03-12T14:36:14;23.47;;;4.20;;
43529;SDS011;55654;50.966;6.878;2023-03-12T14:38:43;19.70;;;4.43;;
43529;SDS011;55654;50.966;6.878;2023-03-12T14:41:17;20.47;;;4.20;;
43529;SDS011;55654;50.966;6.878;2023-03-12T14:43:44;20.50;;;4.63;;
43529;SDS011;55654;50.966;6.878;2023-03-12T14:46:18;22.20;;;6.00;;
43529;SDS011;55654;50.966;6.878;2023-03-12T14:48:46;25.10;;;4.23;;
43529;SDS011;55654;50.966;6.878;2023-03-12T14:51:29;21.57;;;4.30;;
43529;SDS011;55654;50.966;6.878;2023-03-12T14:54:37;17.67;;;4.07;;
43529;SDS011;55654;50.966;6.878;2023-03-12T14:57:03;25.33;;;4.80;;
43529;SDS011;55654;50.966;6.878;2023-03-12T14:59:32;18.40;;;3.77;;
43529;SDS011;55654;50.966;6.878;2023-03-12T15:02:10;24.13;;;5.53;;
43529;SDS011;55654;50.966;6.878;2023-03-12T15:04:37;26.83;;;5.60;;
43529;SDS011;55654;50.966;6.878;2023-03-12T15:07:08;20.93;;;5.70;;
43529;SDS011;55654;50.966;6.878;2023-03-12T15:09:40;20.23;;;4.77;;
43529;SDS011;55654;50.966;6.878;2023-03-12T15:12:07;28.80;;;6.37;;
43529;SDS011;55654;50.966;6.878;2023-03-12T15:14:42;24.97;;;5.00;;
43529;SDS011;55654;50.966;6.878;2023-03-12T15:17:23;24.07;;;5.17;;
43529;SDS011;55654;50.966;6.878;2023-03-12T15:19:56;25.70;;;5.77;;
43529;SDS011;55654;50.966;6.878;2023-03-12T15:22:51;24.90;;;4.60;;
43529;SDS011;55654;50.966;6.878;2023-03-12T15:25:25;25.27;;;4.57;;
43529;SDS011;55654;50.966;6.878;2023-03-12T15:33:28;26.50;;;5.47;;
43529;SDS011;55654;50.966;6.878;2023-03-12T15:38:43;25.83;;;4.57;;
43529;SDS011;55654;50.966;6.878;2023-03-12T15:41:15;24.57;;;4.23;;
43529;SDS011;55654;50.966;6.878;2023-03-12T15:43:43;28.90;;;4.73;;
43529;SDS011;55654;50.966;6.878;2023-03-12T15:46:10;28.83;;;5.90;;
43529;SDS011;55654;50.966;6.878;2023-03-12T15:48:37;28.17;;;5.93;;
43529;SDS011;55654;50.966;6.878;2023-03-12T15:51:14;25.27;;;5.17;;
43529;SDS011;55654;50.966;6.878;2023-03-12T15:53:57;31.80;;;5.63;;
43529;SDS011;55654;50.966;6.878;2023-03-12T15:56:23;26.93;;;4.33;;
43529;SDS011;55654;50.966;6.878;2023-03-12T15:59:00;24.00;;;4.57;;
43529;SDS011;55654;50.966;6.878;2023-03-12T16:01:26;23.17;;;4.30;;
43529;SDS011;55654;50.966;6.878;2023-03-12T16:03:52;17.23;;;4.40;;
43529;SDS011;55654;50.966;6.878;2023-03-12T16:06:24;26.30;;;5.13;;
43529;SDS011;55654;50.966;6.878;2023-03-12T16:08:52;24.90;;;5.00;;
43529;SDS011;55654;50.966;6.878;2023-03-12T16:11:24;25.87;;;4.93;;
43529;SDS011;55654;50.966;6.878;2023-03-12T16:13:51;24.10;;;4.77;;
43529;SDS011;55654;50.966;6.878;2023-03-12T16:16:19;21.53;;;4.90;;
43529;SDS011;55654;50.966;6.878;2023-03-12T16:18:45;29.97;;;4.97;;
43529;SDS011;55654;50.966;6.878;2023-03-12T16:21:11;36.73;;;5.10;;
43529;SDS011;55654;50.966;6.878;2023-03-12T16:23:37;23.67;;;4.97;;
43529;SDS011;55654;50.966;6.878;2023-03-12T16:26:03;30.57;;;6.83;;
43529;SDS011;55654;50.966;6.878;2023-03-12T16:28:30;27.13;;;4.93;;
43529;SDS011;55654;50.966;6.878;2023-03-12T16:30:58;22.10;;;4.40;;
43529;SDS011;55654;50.966;6.878;2023-03-12T16:33:24;27.20;;;5.23;;
43529;SDS011;55654;50.966;6.878;2023-03-12T16:35:50;22.77;;;4.40;;
43529;SDS011;55654;50.966;6.878;2023-03-12T16:38:16;35.47;;;5.53;;